• Join FlightAware (Why Join?)
  • Login
  • US Flag 
Rudolph Flight #1: Scheduled 
09:24PM EST


 

Airport Tracker/Info


-or-


 

Live Flight TrackerFlight Track Log ✈ AFR6725 ✈ 25-May-2013 ✈ KIAH - LFPG / CDG

Flight Track Log - Related Links

Times and Time Zones

All times are in EDT time to prevent confusion due to time zone crossing. See the AFR6725 flight status page for this flight to view local times or setup timezone preferences in your user account.

Time Position Orientation Groundspeed Altitude Reporting Facility
EDT Latitude Longitude Course Direction KTS MPH feet Rate Location/Type
08:01AM 29.9936 -95.3625 270° West 187 215 400  Level FlightAware ADS-B
08:01AM 29.9940 -95.3673 275° West 190 219 600 2,220 Climbing FlightAware ADS-B
08:01AM 29.9945 -95.3703 281° West 190 219 700 2,520 Climbing FlightAware ADS-B
08:01AM 29.9957 -95.3743 289° West 191 220 900 2,220 Climbing FlightAware ADS-B
08:02AM 29.9977 -95.3782 301° West 193 222 1,000 1,500 Climbing FlightAware ADS-B
08:02AM 29.9996 -95.3809 309° West 197 227 1,100 1,500 Climbing FlightAware ADS-B
08:02AM 30.0025 -95.3837 320° Northwest 198 228 1,200 1,680 Climbing FlightAware ADS-B
08:02AM 30.0050 -95.3853 331° Northwest 199 229 1,300 2,520 Climbing FlightAware ADS-B
08:02AM 30.0085 -95.3869 338° Northwest 202 232 1,500 1,800 Climbing FlightAware ADS-B
08:02AM 30.0135 -95.3878 351° North 198 228 1,600 1,320 Climbing FlightAware ADS-B
08:02AM 30.0169 -95.3878 360° North 196 226 1,700 1,320 Climbing FlightAware ADS-B
08:02AM 30.0217 -95.3873 North 200 230 1,800 660 Climbing FlightAware ADS-B
08:02AM 30.0322 -95.3855 North 213 245 1,900 420 Climbing FlightAware ADS-B
08:02AM 30.0477 -95.3820 11° North 234 269 2,000 660 Climbing FlightAware ADS-B
08:03AM 30.0610 -95.3787 12° North 247 284 2,200 1,020 Climbing FlightAware ADS-B
08:03AM 30.0794 -95.3744 11° North 261 300 2,500 960 Climbing FlightAware ADS-B
08:03AM 30.0965 -95.3704 11° North 279 321 2,700 1,440 Climbing FlightAware ADS-B
08:04AM 30.1380 -95.3608 11° North 304 350 3,600 2,100 Climbing FlightAware ADS-B
08:04AM 30.1579 -95.3550 14° North 303 349 4,300 2,880 Climbing FlightAware ADS-B
08:04AM 30.1840 -95.3406 27° Northeast 303 349 5,300 2,400 Climbing FlightAware ADS-B
08:06AM 30.3038 -95.2631 30° Northeast 332 382 8,900 2,280 Climbing FlightAware ADS-B
08:07AM 30.3661 -95.2217 30° Northeast 349 402 10,700 1,800 Climbing FlightAware ADS-B
08:07AM 30.4108 -95.1929 29° Northeast 377 434 11,200 1,380 Climbing FlightAware ADS-B
08:08AM 30.5083 -95.1282 30° Northeast 423 487 12,800 1,740 Climbing FlightAware ADS-B
08:09AM 30.5610 -95.0930 30° Northeast 436 502 13,900 2,400 Climbing FlightAware ADS-B
08:09AM 30.6121 -95.0593 30° Northeast 440 506 15,200 2,520 Climbing FlightAware ADS-B
08:10AM 30.7233 -94.9912 28° Northeast 455 524 17,700 2,100 Climbing FlightAware ADS-B
08:12AM 30.8991 -94.8819 28° Northeast 488 562 20,600 1,860 Climbing FlightAware ADS-B
08:12AM 30.9615 -94.8429 28° Northeast 499 574 21,500 1,740 Climbing FlightAware ADS-B
08:13AM 31.0908 -94.7618 28° Northeast 512 589 23,400 1,860 Climbing FlightAware ADS-B
08:14AM 31.1569 -94.7192 29° Northeast 516 594 24,500 1,980 Climbing FlightAware ADS-B
08:14AM 31.2200 -94.6750 31° Northeast 519 597 25,500 1,680 Climbing FlightAware ADS-B
08:17AM 31.6042 -94.4115 31° Northeast 522 601 30,600 1,560 Climbing FlightAware ADS-B
08:18AM 31.7311 -94.3227 31° Northeast 520 598 31,900 1,140 Climbing FlightAware ADS-B
08:19AM 31.8623 -94.2306 31° Northeast 521 600 33,000 600 Climbing FlightAware ADS-B
08:20AM 31.9535 -94.1664 31° Northeast 523 602 33,000  Level FlightAware ADS-B
08:21AM 32.0360 -94.1084 31° Northeast 520 598 33,000  Level FlightAware ADS-B
08:21AM 32.1029 -94.0611 31° Northeast 519 597 33,000  Level FlightAware ADS-B
08:24AM 32.3851 -93.8614 31° Northeast 512 589 33,000  Level FlightAware ADS-B
08:24AM 32.4620 -93.8068 31° Northeast 512 589 33,000  Level FlightAware ADS-B
08:25AM 32.5730 -93.7280 31° Northeast 513 590 33,000  Level FlightAware
08:26AM 32.7020 -93.6350 31° Northeast 513 590 33,000  Level FlightAware
08:27AM 32.7680 -93.5880 31° Northeast 513 590 33,000  Level FlightAware
08:28AM 32.8720 -93.5140 31° Northeast 513 590 33,000  Level FlightAware
08:28AM 32.9340 -93.4690 31° Northeast 513 590 33,000  Level FlightAware
08:29AM 33.0170 -93.4100 31° Northeast 513 590 33,000  Level FlightAware
08:30AM 33.0800 -93.3650 31° Northeast 513 590 33,000  Level FlightAware
08:31AM 33.1580 -93.3090 31° Northeast 513 590 33,000  Level FlightAware
08:31AM 33.2370 -93.2520 31° Northeast 513 590 33,000  Level FlightAware
08:32AM 33.2990 -93.2070 31° Northeast 513 590 33,000  Level FlightAware
08:33AM 33.3630 -93.1610 31° Northeast 513 590 33,000  Level FlightAware
08:33AM 33.4460 -93.1010 31° Northeast 513 590 33,000  Level FlightAware
08:34AM 33.5090 -93.0570 30° Northeast 513 590 33,000  Level FlightAware
08:35AM 33.5930 -92.9960 31° Northeast 513 590 33,000  Level FlightAware
08:35AM 33.6560 -92.9510 31° Northeast 513 590 33,000  Level FlightAware
08:36AM 33.7370 -92.8920 31° Northeast 513 590 33,000  Level FlightAware
08:37AM 33.9592 -92.6811 31° Northeast 506 582 33,000  Level Memphis Center
08:38AM 34.0636 -92.5636 43° Northeast 506 582 33,000  Level Memphis Center
08:39AM 34.1639 -92.4408 45° Northeast 506 582 33,000  Level Memphis Center
08:40AM 34.2681 -92.3175 44° Northeast 511 588 33,000  Level Memphis Center
08:41AM 34.3678 -92.2017 44° Northeast 506 582 33,000  Level Memphis Center
08:42AM 34.4739 -92.0803 43° Northeast 506 582 33,000  Level Memphis Center
08:43AM 34.5756 -91.9614 44° Northeast 506 582 33,000  Level Memphis Center
08:44AM 34.6772 -91.8394 45° Northeast 511 588 33,000  Level Memphis Center
08:45AM 34.7808 -91.7225 43° Northeast 511 588 33,000  Level Memphis Center
08:46AM 34.8717 -91.6125 45° Northeast 506 582 33,000  Level Memphis Center
08:47AM 34.9814 -91.4772 45° Northeast 506 582 33,000  Level Memphis Center
08:48AM 35.0994 -91.3444 43° Northeast 511 588 33,000  Level Memphis Center
08:49AM 35.1900 -91.2286 46° Northeast 511 588 33,000  Level Memphis Center
08:55AM 35.8290 -90.4540 46° Northeast 520 598 33,000  Level FlightAware
08:56AM 35.9040 -90.3630 44° Northeast 518 596 33,000  Level FlightAware
08:56AM 35.9730 -90.2760 46° Northeast 519 597 33,000  Level FlightAware
08:57AM 36.0660 -90.1590 45° Northeast 520 598 33,000  Level FlightAware
08:58AM 36.1190 -90.0920 46° Northeast 520 598 33,000  Level FlightAware
08:59AM 36.1870 -90.0050 46° Northeast 520 598 33,000  Level FlightAware
08:59AM 36.2380 -89.9390 46° Northeast 520 598 33,000  Level FlightAware
09:01AM 36.3970 -89.7510 44° Northeast 515 593 33,000  Level FlightAware
09:01AM 36.4670 -89.6670 44° Northeast 515 593 33,000  Level FlightAware
09:02AM 36.5160 -89.6080 44° Northeast 515 593 33,000  Level FlightAware
09:03AM 36.6170 -89.4700 48° Northeast 502 578 33,000  Level FlightAware
09:03AM 36.6690 -89.4060 45° Northeast 502 578 33,000  Level FlightAware
09:04AM 36.7360 -89.3220 45° Northeast 502 578 33,000  Level FlightAware
09:05AM 36.7860 -89.2600 45° Northeast 502 578 33,000  Level FlightAware
09:05AM 36.8030 -89.2390 45° Northeast 502 578 33,000  Level FlightAware
09:06AM 36.9170 -89.0960 45° Northeast 502 578 33,000  Level FlightAware
09:07AM 36.9670 -89.0330 45° Northeast 502 578 33,000  Level FlightAware
09:08AM 37.0340 -88.9490 45° Northeast 502 578 33,000  Level FlightAware
09:08AM 37.1570 -88.7770 48° Northeast 481 554 33,000  Level FlightAware
09:09AM 37.2030 -88.7140 47° Northeast 481 554 33,000  Level FlightAware
09:10AM 37.2910 -88.6040 45° Northeast 478 550 33,000  Level FlightAware
09:11AM 37.3520 -88.5240 46° Northeast 478 550 33,000  Level FlightAware
09:11AM 37.4190 -88.4360 46° Northeast 478 550 33,000  Level FlightAware
09:12AM 37.4590 -88.3840 46° Northeast 480 552 33,000  Level FlightAware
09:13AM 37.5450 -88.2710 46° Northeast 483 556 33,000  Level FlightAware
09:13AM 37.6160 -88.1780 46° Northeast 483 556 33,000  Level FlightAware
09:14AM 37.6740 -88.1000 47° Northeast 483 556 33,000  Level FlightAware
09:15AM 37.7430 -88.0090 46° Northeast 485 558 33,000  Level FlightAware
09:15AM 37.8070 -87.9250 46° Northeast 484 557 33,000  Level FlightAware
09:16AM 37.8740 -87.8350 47° Northeast 485 558 33,000  Level FlightAware
09:17AM 37.9340 -87.7490 48° Northeast 490 564 33,000  Level FlightAware
09:18AM 37.9920 -87.6610 50° Northeast 486 559 33,000  Level FlightAware
09:18AM 38.0550 -87.5650 50° Northeast 487 560 33,000  Level FlightAware
09:19AM 38.1080 -87.4820 51° Northeast 486 559 33,000  Level FlightAware
09:20AM 38.1720 -87.3810 51° Northeast 487 560 33,000  Level FlightAware
09:20AM 38.2370 -87.2790 51° Northeast 488 562 33,000  Level FlightAware
09:21AM 38.2930 -87.1880 52° Northeast 489 563 33,000  Level FlightAware
09:22AM 38.3550 -87.0900 51° Northeast 491 565 33,000  Level FlightAware
09:22AM 38.4090 -87.0040 51° Northeast 492 566 33,000  Level FlightAware
09:23AM 38.4680 -86.9100 51° Northeast 496 571 33,000  Level FlightAware
09:24AM 38.5320 -86.8080 51° Northeast 498 573 33,000  Level FlightAware
09:25AM 38.5900 -86.7140 52° Northeast 500 575 33,000  Level FlightAware
09:25AM 38.6700 -86.5860 51° Northeast 501 577 33,000  Level FlightAware
09:26AM 38.7370 -86.4770 52° Northeast 502 578 33,000  Level FlightAware
09:27AM 38.8010 -86.3730 52° Northeast 503 579 33,000  Level FlightAware
09:28AM 38.8620 -86.2740 52° Northeast 502 578 33,000  Level FlightAware
09:28AM 38.9180 -86.1810 52° Northeast 502 578 33,000  Level FlightAware
09:29AM 38.9700 -86.0960 52° Northeast 499 574 33,000  Level FlightAware
09:30AM 39.0320 -85.9940 52° Northeast 498 573 33,000  Level FlightAware
09:30AM 39.0590 -85.9490 52° Northeast 496 571 33,000  Level FlightAware
09:31AM 39.1710 -85.7640 52° Northeast 493 567 33,000  Level FlightAware
09:32AM 39.2310 -85.6640 52° Northeast 491 565 33,000  Level FlightAware
09:33AM 39.2860 -85.5730 52° Northeast 492 566 33,000  Level FlightAware
09:33AM 39.3510 -85.4680 51° Northeast 489 563 33,000  Level FlightAware
09:34AM 39.4110 -85.3770 50° Northeast 487 560 33,000  Level FlightAware
09:35AM 39.4780 -85.2780 49° Northeast 487 560 33,000  Level FlightAware
09:36AM 39.5550 -85.1630 49° Northeast 487 560 33,000  Level FlightAware
09:37AM 39.6190 -85.0670 49° Northeast 486 559 33,000  Level FlightAware
09:37AM 39.6780 -84.9780 49° Northeast 486 559 33,000  Level FlightAware
09:38AM 39.7440 -84.8790 49° Northeast 486 559 33,000  Level FlightAware
09:39AM 39.8000 -84.7930 50° Northeast 487 560 33,000  Level FlightAware
09:39AM 39.8650 -84.6940 49° Northeast 489 563 33,000  Level FlightAware
09:40AM 39.9240 -84.6040 49° Northeast 490 564 33,000  Level FlightAware
09:41AM 39.9820 -84.5150 50° Northeast 489 563 33,000  Level FlightAware
09:41AM 40.0450 -84.4180 50° Northeast 489 563 33,000  Level FlightAware
09:42AM 40.1050 -84.3260 50° Northeast 488 562 33,000  Level FlightAware
09:43AM 40.1690 -84.2280 49° Northeast 488 562 33,000  Level FlightAware
09:43AM 40.2280 -84.1360 50° Northeast 489 563 33,000  Level FlightAware
09:44AM 40.2950 -84.0290 51° Northeast 490 564 33,000  Level FlightAware
09:45AM 40.3520 -83.9320 52° Northeast 489 563 33,000  Level FlightAware
09:46AM 40.4100 -83.8340 52° Northeast 487 560 33,000  Level FlightAware
09:46AM 40.4620 -83.7450 52° Northeast 486 559 33,000  Level FlightAware
09:47AM 40.5230 -83.6410 52° Northeast 484 557 33,000  Level FlightAware
09:48AM 40.5760 -83.5480 53° Northeast 481 554 33,000  Level FlightAware
09:48AM 40.6380 -83.4410 53° Northeast 480 552 33,000  Level FlightAware
09:49AM 40.6910 -83.3480 53° Northeast 480 552 33,000  Level FlightAware
09:50AM 40.7450 -83.2540 53° Northeast 481 554 33,000  Level FlightAware
09:51AM 40.8060 -83.1470 53° Northeast 482 555 33,000  Level FlightAware
09:51AM 40.8570 -83.0570 53° Northeast 482 555 33,000  Level FlightAware
09:52AM 40.9100 -82.9630 53° Northeast 483 556 33,000  Level FlightAware
09:53AM 40.9670 -82.8630 53° Northeast 485 558 33,000  Level FlightAware
09:53AM 41.0290 -82.7520 53° Northeast 484 557 33,000  Level FlightAware
09:54AM 41.0810 -82.6600 53° Northeast 484 557 33,000  Level FlightAware
09:55AM 41.1400 -82.5540 54° Northeast 483 556 33,000  Level FlightAware
09:55AM 41.1920 -82.4630 53° Northeast 483 556 33,000  Level FlightAware
09:56AM 41.2500 -82.3560 54° Northeast 482 555 33,000  Level FlightAware
09:57AM 41.3070 -82.2550 53° Northeast 482 555 33,000  Level FlightAware
09:57AM 41.3590 -82.1480 57° Northeast 501 577 33,000  Level FlightAware
09:58AM 41.3980 -82.0260 67° East 510 587 33,000  Level FlightAware
09:59AM 41.4320 -81.9090 69° East 511 588 33,000  Level FlightAware
10:00AM 41.4700 -81.7750 69° East 511 588 33,000  Level FlightAware
10:00AM 41.5050 -81.6510 69° East 509 586 33,000  Level FlightAware
10:01AM 41.5350 -81.5440 69° East 510 587 33,000  Level FlightAware
10:02AM 41.5740 -81.4090 69° East 512 589 33,000  Level FlightAware
10:02AM 41.6060 -81.2940 70° East 512 589 33,000  Level FlightAware
10:03AM 41.6410 -81.1670 70° East 511 588 33,000  Level FlightAware
10:04AM 41.6770 -81.0390 69° East 511 588 33,000  Level FlightAware
10:04AM 41.7120 -80.9130 70° East 512 589 33,000  Level FlightAware
10:05AM 41.7410 -80.8060 70° East 513 590 33,000  Level FlightAware
10:06AM 41.7840 -80.6580 69° East 508 585 33,000  Level FlightAware
10:07AM 41.8210 -80.5580 64° Northeast 498 573 33,000  Level FlightAware
10:07AM 41.8790 -80.4260 59° Northeast 490 564 33,000  Level FlightAware
10:08AM 41.9320 -80.3060 59° Northeast 487 560 33,000  Level FlightAware
10:09AM 41.9810 -80.2000 58° Northeast 486 559 33,000  Level FlightAware
10:10AM 42.0300 -80.0900 59° Northeast 486 559 33,000  Level FlightAware
10:10AM 42.0790 -79.9820 59° Northeast 484 557 33,000  Level FlightAware
10:11AM 42.1430 -79.8400 59° Northeast 481 554 33,000  Level FlightAware
10:12AM 42.1940 -79.7250 59° Northeast 477 549 33,000  Level FlightAware
10:13AM 42.2390 -79.6260 58° Northeast 476 548 33,000  Level FlightAware
10:13AM 42.2840 -79.5230 59° Northeast 483 556 33,000  Level FlightAware
10:14AM 42.3360 -79.4070 59° Northeast 485 558 33,000  Level FlightAware
10:15AM 42.3820 -79.3010 60° Northeast 486 559 33,000  Level FlightAware
10:15AM 42.4350 -79.1820 59° Northeast 489 563 33,000  Level FlightAware
10:16AM 42.4800 -79.0780 60° Northeast 491 565 33,000  Level FlightAware
10:17AM 42.5270 -78.9700 59° Northeast 491 565 33,000  Level FlightAware
10:18AM 42.5790 -78.8510 59° Northeast 490 564 33,000  Level FlightAware
10:18AM 42.6240 -78.7470 60° Northeast 492 566 33,000  Level FlightAware
10:19AM 42.6770 -78.6240 60° Northeast 492 566 33,000  Level FlightAware
10:20AM 42.7220 -78.5180 60° Northeast 491 565 33,000  Level FlightAware
10:21AM 42.7430 -78.4700 59° Northeast 491 565 33,000  Level FlightAware
10:21AM 42.8360 -78.2510 60° Northeast 494 568 33,000  Level FlightAware
10:22AM 42.8990 -78.1020 60° Northeast 495 570 33,000  Level FlightAware
10:23AM 42.9490 -77.9830 60° Northeast 495 570 33,000  Level FlightAware
10:24AM 42.9960 -77.8730 60° Northeast 494 568 33,000  Level FlightAware
10:24AM 43.0400 -77.7670 60° Northeast 494 568 33,000  Level FlightAware
10:26AM 43.1360 -77.5360 60° Northeast 496 571 33,000  Level FlightAware
10:26AM 43.1810 -77.4250 61° Northeast 497 572 33,000  Level FlightAware
10:27AM 43.2320 -77.3010 61° Northeast 497 572 33,000  Level FlightAware
10:28AM 43.2770 -77.1930 60° Northeast 497 572 33,000  Level FlightAware
10:28AM 43.3220 -77.0830 61° Northeast 496 571 33,000  Level FlightAware
10:29AM 43.3720 -76.9590 61° Northeast 495 570 33,000  Level FlightAware
10:30AM 43.4170 -76.8490 61° Northeast 495 570 33,000  Level FlightAware
10:31AM 43.4660 -76.7270 61° Northeast 495 570 33,000  Level FlightAware
10:31AM 43.5170 -76.6010 61° Northeast 496 571 33,000  Level FlightAware
10:32AM 43.5600 -76.4930 61° Northeast 496 571 33,000  Level FlightAware
10:33AM 43.6050 -76.3800 61° Northeast 496 571 33,000  Level FlightAware
10:33AM 43.6530 -76.2590 61° Northeast 497 572 33,000  Level FlightAware
10:34AM 43.6930 -76.1570 61° Northeast 497 572 33,000  Level FlightAware
10:35AM 43.7430 -76.0320 61° Northeast 498 573 33,000  Level FlightAware
10:35AM 43.7790 -75.9370 62° Northeast 494 568 33,000  Level FlightAware
10:36AM 43.8310 -75.8050 61° Northeast 493 567 33,000  Level FlightAware
10:37AM 43.8810 -75.6780 61° Northeast 493 567 33,000  Level FlightAware
10:38AM 43.9240 -75.5660 62° Northeast 494 568 33,000  Level FlightAware
10:38AM 43.9760 -75.4310 62° Northeast 498 573 33,000  Level FlightAware
10:39AM 44.0230 -75.3080 62° Northeast 497 572 33,000  Level FlightAware
10:40AM 44.0770 -75.1660 62° Northeast 496 571 33,000  Level FlightAware
10:41AM 44.1210 -75.0510 62° Northeast 494 568 33,000  Level FlightAware
10:41AM 44.1700 -74.9230 62° Northeast 492 566 33,000  Level FlightAware
10:42AM 44.2090 -74.8180 63° Northeast 490 564 33,000  Level FlightAware
10:43AM 44.2550 -74.6960 62° Northeast 491 565 33,000  Level FlightAware
10:43AM 44.2980 -74.5810 62° Northeast 491 565 33,000  Level FlightAware
10:44AM 44.3460 -74.4530 62° Northeast 493 567 33,000  Level FlightAware
10:46AM 44.4460 -74.2610 54° Northeast 522 601 33,000  Level FlightAware
10:47AM 44.6330 -74.0460 39° Northeast 521 600 33,000  Level FlightAware
10:48AM 44.7030 -73.9640 40° Northeast 519 597 33,000  Level FlightAware
10:48AM 44.7870 -73.8650 40° Northeast 516 594 33,000  Level FlightAware
10:49AM 44.8580 -73.7760 42° Northeast 513 590 33,000  Level FlightAware
10:51AM 44.9880 -73.6010 44° Northeast 514 592 33,000  Level FlightAware
10:52AM 45.1690 -73.3540 44° Northeast 516 594 33,000  Level FlightAware
10:53AM 45.2330 -73.2670 44° Northeast 517 595 33,000  Level FlightAware
10:54AM 45.3150 -73.1540 44° Northeast 520 598 33,000  Level FlightAware
10:54AM 45.3840 -73.0600 44° Northeast 524 603 33,000  Level FlightAware
10:55AM 45.4540 -72.9620 44° Northeast 526 605 33,000  Level FlightAware
10:56AM 45.5340 -72.8510 44° Northeast 530 610 33,000  Level FlightAware
10:56AM 45.6030 -72.7550 44° Northeast 531 611 33,000  Level FlightAware
10:57AM 45.6830 -72.6430 44° Northeast 532 612 33,000  Level FlightAware
10:58AM 45.7540 -72.5440 44° Northeast 533 613 33,000  Level FlightAware
10:58AM 45.8330 -72.4330 44° Northeast 536 617 33,000  Level FlightAware
10:59AM 45.9050 -72.3300 45° Northeast 537 618 33,000  Level FlightAware
11:00AM 45.9790 -72.2260 44° Northeast 539 620 33,000  Level FlightAware
11:00AM 46.0450 -72.1310 45° Northeast 541 623 33,000  Level FlightAware
11:01AM 46.1300 -72.0090 45° Northeast 545 627 33,000  Level FlightAware
11:02AM 46.2020 -71.9070 44° Northeast 548 631 33,000  Level FlightAware
11:03AM 46.2720 -71.8060 45° Northeast 550 633 33,000  Level FlightAware
11:03AM 46.3720 -71.6610 45° Northeast 556 640 33,000  Level FlightAware
11:04AM 46.4540 -71.5410 45° Northeast 560 644 33,000  Level FlightAware
11:05AM 46.5260 -71.4360 45° Northeast 560 644 33,000  Level FlightAware
11:06AM 46.6070 -71.3160 45° Northeast 562 647 33,000  Level FlightAware
11:06AM 46.6790 -71.2090 46° Northeast 560 644 33,000  Level FlightAware
11:07AM 46.7530 -71.1010 45° Northeast 561 646 33,000  Level FlightAware
11:08AM 46.8340 -70.9800 46° Northeast 561 646 33,000  Level FlightAware
11:08AM 46.9160 -70.8580 45° Northeast 560 644 33,000  Level FlightAware
11:09AM 46.9880 -70.7500 46° Northeast 560 644 33,000  Level FlightAware
11:10AM 47.0590 -70.6420 46° Northeast 559 643 33,000  Level FlightAware
11:11AM 47.1390 -70.5200 46° Northeast 559 643 33,000  Level FlightAware
11:11AM 47.2120 -70.4100 46° Northeast 558 642 33,000  Level FlightAware
11:12AM 47.2830 -70.3020 46° Northeast 557 641 33,000  Level FlightAware
11:13AM 47.3540 -70.1930 46° Northeast 558 642 33,000  Level FlightAware
11:13AM 47.4330 -70.0710 46° Northeast 560 644 33,000  Level FlightAware
11:14AM 47.5060 -69.9580 46° Northeast 563 648 33,000  Level FlightAware
11:15AM 47.5770 -69.8480 46° Northeast 564 649 33,000  Level FlightAware
11:15AM 47.6580 -69.7200 47° Northeast 565 650 33,000  Level FlightAware
11:16AM 47.7290 -69.6090 46° Northeast 566 651 33,000  Level FlightAware
11:17AM 47.8090 -69.4830 47° Northeast 565 650 33,000  Level FlightAware
11:18AM 47.8910 -69.3540 47° Northeast 568 654 33,000  Level FlightAware
11:18AM 47.9620 -69.2410 47° Northeast 570 656 33,000  Level FlightAware
11:19AM 48.0550 -69.0910 47° Northeast 571 657 33,000  Level FlightAware
11:20AM 48.1580 -68.9270 47° Northeast 571 657 33,000  Level FlightAware
11:21AM 48.2310 -68.8080 47° Northeast 571 657 33,000  Level FlightAware
11:22AM 48.2860 -68.7190 47° Northeast 571 657 33,000  Level FlightAware
11:23AM 48.3570 -68.6060 47° Northeast 571 657 33,000  Level FlightAware
11:23AM 48.4300 -68.4870 47° Northeast 571 657 33,000  Level FlightAware
11:24AM 48.4820 -68.4030 47° Northeast 571 657 33,000  Level FlightAware
11:25AM 48.5560 -68.2840 47° Northeast 571 657 33,000  Level FlightAware
11:25AM 48.6110 -68.1940 47° Northeast 571 657 33,000  Level FlightAware
11:26AM 48.6830 -68.0780 47° Northeast 571 657 33,000  Level FlightAware
11:27AM 48.7380 -67.9880 47° Northeast 571 657 33,000  Level FlightAware
11:27AM 48.8130 -67.8660 47° Northeast 571 657 33,000  Level FlightAware
11:28AM 48.8700 -67.7740 47° Northeast 571 657 33,000  Level FlightAware
11:28AM 49.0333 -67.4333 47° Northeast 580 667 33,000  Level Gander Center
11:29AM 49.1000 -67.3000 53° Northeast 570 656 33,000  Level Montreal Center
11:30AM 49.2167 -67.1000 48° Northeast 580 667 33,000  Level Montreal Center
11:30AM 49.2500 -67.0667 33° Northeast 580 667 33,000  Level Gander Center
11:31AM 49.3667 -66.9000 43° Northeast 580 667 33,000  Level Gander Center
11:32AM 49.4333 -66.7500 56° Northeast 580 667 33,000  Level Montreal Center
11:33AM 49.5333 -66.5500 52° Northeast 580 667 33,000  Level Montreal Center
11:34AM 49.6500 -66.3667 45° Northeast 580 667 33,000  Level Montreal Center
11:35AM 49.6833 -66.3167 44° Northeast 580 667 33,000  Level Moncton Center
11:36AM 49.8000 -66.1167 48° Northeast 590 679 33,000  Level Moncton Center
11:36AM 49.8500 -65.9833 60° Northeast 590 679 33,000  Level Montreal Center
11:37AM 49.9500 -65.8000 50° Northeast 590 679 33,000  Level Montreal Center
11:37AM 50.0000 -65.7500 33° Northeast 590 679 33,000  Level Gander Center
11:38AM 50.0667 -65.5833 58° Northeast 590 679 33,000  Level Montreal Center
11:39AM 50.1667 -65.4000 50° Northeast 590 679 33,000  Level Montreal Center
11:40AM 50.2667 -65.2000 52° Northeast 590 679 33,000  Level Montreal Center
11:41AM 50.3833 -65.0167 45° Northeast 590 679 33,000  Level Montreal Center
11:41AM 50.4333 -64.9500 40° Northeast 590 679 33,000  Level Gander Center
11:42AM 50.5333 -64.7833 47° Northeast 590 679 33,000  Level Gander Center
11:43AM 50.6500 -64.5500 52° Northeast 590 679 33,000  Level Gander Center
11:44AM 50.7333 -64.3667 54° Northeast 590 679 33,000  Level Gander Center
11:46AM 50.8667 -64.1333 48° Northeast 590 679 33,000  Level Moncton Center
11:47AM 50.9667 -63.9500 49° Northeast 590 679 33,000  Level Moncton Center
11:48AM 51.0667 -63.7333 54° Northeast 590 679 33,000  Level Moncton Center
11:49AM 51.1667 -63.5500 49° Northeast 590 679 33,000  Level Moncton Center
11:49AM 51.2500 -63.3333 58° Northeast 590 679 33,000  Level Gander Center
11:50AM 51.3667 -63.1333 47° Northeast 590 679 33,000  Level Gander Center
11:51AM 51.4667 -62.9167 53° Northeast 590 679 33,000  Level Gander Center
11:52AM 51.5667 -62.7000 53° Northeast 590 679 33,000  Level Gander Center
11:53AM 51.6667 -62.5000 51° Northeast 600 690 33,000  Level Gander Center
11:54AM 51.7333 -62.2833 64° Northeast 600 690 33,000  Level Gander Center
11:55AM 51.8167 -62.0333 62° Northeast 590 679 33,000  Level Gander Center
11:56AM 51.9000 -61.8000 60° Northeast 600 690 33,000  Level Gander Center
11:57AM 51.9667 -61.5500 67° East 600 690 33,000  Level Gander Center
11:58AM 52.0667 -61.3333 53° Northeast 600 690 33,000  Level Gander Center
11:59AM 52.1500 -61.0667 63° Northeast 600 690 33,000  Level Gander Center
12:00PM 52.2167 -60.8500 63° Northeast 600 690 33,000  Level Gander Center
12:01PM 52.2833 -60.6000 66° East 600 690 33,000  Level Gander Center
12:02PM 52.3500 -60.3500 66° East 590 679 33,000  Level Gander Center
12:03PM 52.4333 -60.1333 58° Northeast 600 690 33,000  Level Gander Center
12:04PM 52.5167 -59.8833 61° Northeast 600 690 33,000  Level Gander Center
12:05PM 52.5833 -59.6333 66° East 600 690 33,000  Level Gander Center
12:06PM 52.6667 -59.3833 61° Northeast 590 679 33,000  Level Gander Center
12:07PM 52.7333 -59.1500 65° Northeast 590 679 33,000  Level Gander Center
12:08PM 52.8000 -58.9000 66° East 590 679 33,000  Level Gander Center
12:09PM 52.8667 -58.6500 66° East 590 679 33,000 300 Level Gander Center
12:10PM 52.9500 -58.4000 61° Northeast 590 679 33,700 900 Climbing Gander Center
12:11PM 53.0000 -58.1500 72° East 600 690 34,900 600 Climbing Gander Center
12:12PM 53.0833 -57.8833 62° Northeast 600 690 35,000  Climbing Gander Center
12:13PM 53.1500 -57.6500 64° Northeast 600 690 35,000  Level Gander Center
12:14PM 53.2333 -57.3667 64° Northeast 600 690 35,000  Level Gander Center
12:15PM 53.3000 -57.1333 64° Northeast 600 690 35,000  Level Gander Center
12:16PM 53.3500 -56.8833 71° East 600 690 35,000  Level Gander Center
12:17PM 53.4167 -56.6167 67° East 600 690 35,000  Level Gander Center
12:18PM 53.5000 -56.3833 59° Northeast 590 679 35,000  Level Gander Center
12:19PM 53.5500 -56.1333 71° East 600 690 35,000  Level Gander Center
12:20PM 53.6333 -55.8667 62° Northeast 600 690 35,000  Level Gander Center
12:21PM 53.7000 -55.6000 67° East 600 690 35,000  Level Gander Center
12:22PM 53.7500 -55.3333 72° East 600 690 35,000  Level Gander Center
12:23PM 53.8167 -55.0833 66° East 600 690 35,000  Level Gander Center
12:24PM 53.9000 -54.8167 62° Northeast 600 690 35,000  Level Gander Center
12:25PM 53.9500 -54.5667 71° East 600 690 35,000  Level Gander Center
12:26PM 54.0167 -54.3000 67° East 600 690 35,000  Level Gander Center
12:27PM 54.0833 -54.0333 67° East 600 690 35,000  Level Gander Center
12:28PM 54.1500 -53.7667 67° East 600 690 35,000  Level Gander Center
12:29PM 54.2000 -53.5000 72° East 600 690 35,000  Level Gander Center
12:30PM 54.2667 -53.2333 67° East 610 702 35,000  Level Gander Center
12:31PM 54.3167 -53.0167 68° East 600 690 35,000  Level Gander Center
12:32PM 54.3667 -52.7500 72° East 600 690 35,000  Level Gander Center
12:33PM 54.4333 -52.4667 68° East 600 690 35,000  Level Gander Center
12:34PM 54.5000 -52.2333 64° Northeast 600 690 35,000  Level Gander Center
12:35PM 54.5667 -51.9500 68° East 600 690 35,000  Level Gander Center
12:36PM 54.6167 -51.6833 72° East 600 690 35,000  Level Gander Center
12:37PM 54.6833 -51.4000 68° East 600 690 35,000  Level Gander Center
12:38PM 54.7333 -51.1333 72° East 600 690 35,000  Level Gander Center
12:40PM 54.7934 -50.8834 67° East  Level FlightAware Approximate
12:47PM 55.1893 -49.2343 66° East  Level FlightAware Approximate
12:48PM 55.2464 -48.9980 67° East  Level FlightAware Approximate
12:49PM 55.3031 -48.7609 67° East  Level FlightAware Approximate
12:50PM 55.3592 -48.5232 68° East  Level FlightAware Approximate
12:51PM 55.4147 -48.2846 68° East  Level FlightAware Approximate
12:52PM 55.4697 -48.0455 68° East  Level FlightAware Approximate
12:53PM 55.5243 -47.8056 68° East  Level FlightAware Approximate
12:54PM 55.5784 -47.5651 68° East  Level FlightAware Approximate
12:55PM 55.6321 -47.3239 68° East  Level FlightAware Approximate
12:56PM 55.6852 -47.0821 69° East  Level FlightAware Approximate
12:57PM 55.7379 -46.8396 69° East  Level FlightAware Approximate
12:58PM 55.7901 -46.5964 69° East  Level FlightAware Approximate
12:59PM 55.8419 -46.3526 69° East  Level FlightAware Approximate
01:00PM 55.8931 -46.1082 69° East  Level FlightAware Approximate
01:00PM 56.0500 -45.2833 70° East 600 690 35,000  Level Gander Center
01:01PM 55.9439 -45.8631 70° East  Level FlightAware Approximate
01:01PM 56.1000 -45.0167 71° East 600 690 35,000  Level Gander Center
01:02PM 55.9940 -45.6173 70° East  Level FlightAware Approximate
01:02PM 56.1667 -44.7167 68° East 610 702 35,000  Level Gander Center
01:03PM 56.0437 -45.3708 70° East  Level FlightAware Approximate
01:03PM 56.2167 -44.4500 71° East 600 690 35,000  Level Gander Center
01:04PM 56.0929 -45.1238 70° East  Level FlightAware Approximate
01:04PM 56.2500 -44.1500 79° East 610 702 35,000  Level Gander Center
01:05PM 56.1415 -44.8760 70° East  Level FlightAware Approximate
01:05PM 56.3167 -43.8833 66° East 610 702 35,000  Level Gander Center
01:06PM 56.3667 -43.5833 73° East 610 702 35,000  Level Gander Center
01:07PM 56.4167 -43.3000 72° East 610 702 35,000  Level Gander Center
01:08PM 56.4667 -43.0000 73° East 610 702 35,000  Level Gander Center
01:09PM 56.5333 -42.7333 66° East 610 702 35,000  Level Gander Center
01:10PM 56.5667 -42.4333 78° East 610 702 35,000  Level Gander Center
01:11PM 56.6333 -42.1500 67° East 610 702 35,000  Level Gander Center
01:12PM 56.6667 -41.8500 78° East 610 702 35,000  Level Gander Center
01:13PM 56.7333 -41.5667 67° East 610 702 35,000  Level Gander Center
01:14PM 56.7667 -41.2833 78° East 610 702 35,000  Level Gander Center
01:15PM 56.8167 -40.9833 73° East 610 702 35,000  Level Gander Center
01:16PM 56.8667 -40.7000 72° East 610 702 35,000  Level Gander Center
01:17PM 56.9000 -40.4000 78° East 600 690 35,000  Level Gander Center
01:18PM 56.9500 -40.1167 72° East 610 702 35,000  Level Gander Center
01:19PM 56.9833 -39.8167 78° East 610 702 35,000  Level Gander Center
01:20PM 57.0000 -39.4833 85° East 610 702 35,000  Level Gander Center
01:21PM 57.0167 -39.1833 84° East 610 702 35,000  Level Gander Center
01:22PM 57.0167 -38.8667 90° East 610 702 35,000  Level Gander Center
01:23PM 57.0333 -38.5833 84° East 610 702 35,000  Level Gander Center
01:24PM 57.0500 -38.2833 84° East 610 702 35,100 840 Climbing Gander Center
01:25PM 57.0333 -37.9667 95° East 610 702 36,700 900 Climbing Gander Center
01:26PM 57.0500 -37.6667 84° East 600 690 37,000 120 Climbing Gander Center
01:27PM 57.0667 -37.3667 84° East 600 690 37,000  Level Gander Center
01:28PM 57.0667 -37.0500 90° East 600 690 37,000  Level Gander Center
01:30PM 57.0751 -36.5446 88° East  Level FlightAware Approximate
01:37PM 57.0885 -34.6648 88° East  Level FlightAware Approximate
01:38PM 57.0881 -34.3962 90° East  Level FlightAware Approximate
01:39PM 57.0871 -34.1276 90° East  Level FlightAware Approximate
01:40PM 57.0856 -33.8590 90° East  Level FlightAware Approximate
01:41PM 57.0835 -33.5905 91° East  Level FlightAware Approximate
01:42PM 57.0808 -33.3219 91° East  Level FlightAware Approximate
01:43PM 57.0775 -33.0535 91° East  Level FlightAware Approximate
01:44PM 57.0737 -32.7850 91° East  Level FlightAware Approximate
01:45PM 57.0693 -32.5167 92° East  Level FlightAware Approximate
01:46PM 57.0643 -32.2484 92° East  Level FlightAware Approximate
01:47PM 57.0588 -31.9802 92° East  Level FlightAware Approximate
01:48PM 57.0527 -31.7120 92° East  Level FlightAware Approximate
01:49PM 57.0460 -31.4440 93° East  Level FlightAware Approximate
01:50PM 57.0387 -31.1760 93° East  Level FlightAware Approximate
01:51PM 57.0309 -30.9082 93° East  Level FlightAware Approximate
01:52PM 57.0224 -30.6405 93° East  Level FlightAware Approximate
01:53PM 57.0135 -30.3729 93° East  Level FlightAware Approximate
01:54PM 57.0039 -30.1054 94° East  Level FlightAware Approximate
01:55PM 56.9763 -29.8437 105° East  Level FlightAware Approximate
01:56PM 56.9368 -29.5861 106° East  Level FlightAware Approximate
01:57PM 56.8967 -29.3290 106° East  Level FlightAware Approximate
01:58PM 56.8561 -29.0724 106° East  Level FlightAware Approximate
01:59PM 56.8149 -28.8165 106° East  Level FlightAware Approximate
02:00PM 56.7733 -28.5610 106° East  Level FlightAware Approximate
02:01PM 56.7311 -28.3062 107° East  Level FlightAware Approximate
02:02PM 56.6884 -28.0519 107° East  Level FlightAware Approximate
02:03PM 56.6452 -27.7982 107° East  Level FlightAware Approximate
02:04PM 56.6015 -27.5451 107° East  Level FlightAware Approximate
02:05PM 56.5573 -27.2926 108° East  Level FlightAware Approximate
02:06PM 56.5125 -27.0407 108° East  Level FlightAware Approximate
02:07PM 56.4673 -26.7894 108° East  Level FlightAware Approximate
02:08PM 56.4215 -26.5386 108° East  Level FlightAware Approximate
02:09PM 56.3752 -26.2885 108° East  Level FlightAware Approximate
02:10PM 56.3285 -26.0390 109° East  Level FlightAware Approximate
02:11PM 56.2812 -25.7901 109° East  Level FlightAware Approximate
02:12PM 56.2334 -25.5418 109° East  Level FlightAware Approximate
02:13PM 56.1852 -25.2942 109° East  Level FlightAware Approximate
02:14PM 56.1364 -25.0471 109° East  Level FlightAware Approximate
02:15PM 56.0872 -24.8008 110° East  Level FlightAware Approximate
02:16PM 56.0374 -24.5550 110° East  Level FlightAware Approximate
02:17PM 55.9872 -24.3099 110° East  Level FlightAware Approximate
02:18PM 55.9365 -24.0654 110° East  Level FlightAware Approximate
02:19PM 55.8853 -23.8215 110° East  Level FlightAware Approximate
02:20PM 55.8336 -23.5783 111° Southeast  Level FlightAware Approximate
02:21PM 55.7815 -23.3357 111° Southeast  Level FlightAware Approximate
02:22PM 55.7289 -23.0938 111° Southeast  Level FlightAware Approximate
02:23PM 55.6758 -22.8526 111° Southeast  Level FlightAware Approximate
02:24PM 55.6222 -22.6120 111° Southeast  Level FlightAware Approximate
02:25PM 55.5681 -22.3720 112° Southeast  Level FlightAware Approximate
02:26PM 55.5136 -22.1328 112° Southeast  Level FlightAware Approximate
02:27PM 55.4587 -21.8942 112° Southeast  Level FlightAware Approximate
02:28PM 55.4032 -21.6562 112° Southeast  Level FlightAware Approximate
02:29PM 55.3473 -21.4189 112° Southeast  Level FlightAware Approximate
02:30PM 55.2910 -21.1824 113° Southeast  Level FlightAware Approximate
02:31PM 55.2342 -20.9464 113° Southeast  Level FlightAware Approximate
02:32PM 55.1769 -20.7112 113° Southeast  Level FlightAware Approximate
02:33PM 55.1192 -20.4766 113° Southeast  Level FlightAware Approximate
02:34PM 55.0610 -20.2427 113° Southeast  Level FlightAware Approximate
02:35PM 55.0024 -20.0095 114° Southeast  Level FlightAware Approximate
02:36PM 54.9706 -19.7614 102° East  Level FlightAware Approximate
02:37PM 54.9395 -19.5131 102° East  Level FlightAware Approximate
02:38PM 54.9079 -19.2652 102° East  Level FlightAware Approximate
02:39PM 54.8758 -19.0177 103° East  Level FlightAware Approximate
02:40PM 54.8431 -18.7705 103° East  Level FlightAware Approximate
02:41PM 54.8100 -18.5238 103° East  Level FlightAware Approximate
02:42PM 54.7764 -18.2775 103° East  Level FlightAware Approximate
02:43PM 54.7422 -18.0315 103° East  Level FlightAware Approximate
02:44PM 54.7076 -17.7860 104° East  Level FlightAware Approximate
02:45PM 54.6725 -17.5410 104° East  Level FlightAware Approximate
02:46PM 54.6369 -17.2963 104° East  Level FlightAware Approximate
02:47PM 54.6007 -17.0521 104° East  Level FlightAware Approximate
02:48PM 54.5642 -16.8083 104° East  Level FlightAware Approximate
02:49PM 54.5271 -16.5649 105° East  Level FlightAware Approximate
02:50PM 54.4895 -16.3220 105° East  Level FlightAware Approximate
02:51PM 54.4514 -16.0796 105° East  Level FlightAware Approximate
02:51PM 53.9110 -14.4240 105° East 522 601 37,000  Level FlightAware
02:52PM 54.4129 -15.8376 105° East  Level FlightAware Approximate
02:52PM 53.8860 -14.2640 105° East 520 598 37,000  Level FlightAware
02:52PM 53.8610 -14.1030 105° East 520 598 37,000  Level FlightAware
02:53PM 53.8320 -13.9260 105° East 519 597 37,000  Level FlightAware
02:54PM 53.8060 -13.7650 105° East 518 596 37,000  Level FlightAware
02:55PM 53.7770 -13.5920 106° East 518 596 37,000  Level FlightAware
02:55PM 53.7520 -13.4380 105° East 517 595 37,000  Level FlightAware
02:56PM 53.7250 -13.2810 106° East 514 592 37,000  Level FlightAware
02:57PM 53.6960 -13.1070 106° East 511 588 37,000  Level FlightAware
02:57PM 53.6700 -12.9520 106° East 510 587 37,000  Level FlightAware
02:58PM 53.6430 -12.7970 106° East 508 585 37,000  Level FlightAware
02:59PM 53.6160 -12.6430 106° East 509 586 37,000  Level FlightAware
02:59PM 53.5870 -12.4750 106° East 507 583 37,000  Level FlightAware
03:00PM 53.5640 -12.3430 106° East 509 586 37,000  Level FlightAware
03:01PM 53.5320 -12.1550 106° East 509 586 37,000  Level FlightAware
03:02PM 53.4950 -11.9590 108° East 512 589 37,000  Level FlightAware
03:02PM 53.4640 -11.7900 107° East 512 589 37,000  Level FlightAware
03:03PM 53.4360 -11.6370 107° East 510 587 37,000  Level FlightAware
03:04PM 53.4050 -11.4700 107° East 505 581 37,000  Level FlightAware
03:04PM 53.3770 -11.3190 107° East 504 580 37,000  Level FlightAware
03:05PM 53.3490 -11.1700 107° East 503 579 37,000  Level FlightAware
03:06PM 53.3180 -11.0040 107° East 500 575 37,000  Level FlightAware
03:07PM 53.2860 -10.8380 108° East 500 575 37,000  Level FlightAware
03:07PM 53.2570 -10.6910 108° East 501 577 37,000  Level FlightAware
03:08PM 53.2290 -10.5430 107° East 502 578 37,000  Level FlightAware
03:09PM 53.1990 -10.3940 109° East 501 577 37,000  Level FlightAware
03:09PM 53.1670 -10.2290 108° East 502 578 37,000  Level FlightAware
03:10PM 53.1510 -10.1500 109° East 505 581 37,000  Level FlightAware
03:10PM 53.1170 -9.9810 108° East 506 582 37,000  Level FlightAware
03:11PM 53.1130 -9.9600 108° East 37,000  Level FlightAware
03:11PM 53.0840 -9.8170 109° East 506 582 37,000  Level FlightAware
03:12PM 53.0480 -9.6400 109° East 506 582 37,000  Level FlightAware
03:13PM 53.0180 -9.4930 109° East 506 582 37,000  Level FlightAware
03:13PM 52.9840 -9.3290 109° East 505 581 37,000  Level FlightAware
03:14PM 52.9530 -9.1820 109° East 504 580 37,000 -120 Level FlightAware
03:15PM 52.9134 -8.9938 109° East 494 568 36,900  Descending FlightAware UK
03:15PM 52.9030 -8.9410 109° East 502 578 37,000  Climbing FlightAware
03:15PM 52.9004 -8.9298 109° East 494 568 36,900  Descending FlightAware UK
03:16PM 52.8866 -8.8650 109° East 496 571 37,000 120 Climbing FlightAware UK
03:16PM 52.8727 -8.7998 109° East 494 568 37,000  Level FlightAware UK
03:16PM 52.8690 -8.7810 109° East 500 575 37,000  Level FlightAware
03:16PM 52.8542 -8.7133 109° East 494 568 37,000 -180 Level FlightAware UK
03:17PM 52.8405 -8.6484 109° East 492 566 36,900  Descending FlightAware UK
03:17PM 52.8360 -8.6310 109° East 496 571 37,000  Climbing FlightAware
03:17PM 52.8219 -8.5621 109° East 490 564 36,900  Descending FlightAware UK
03:17PM 52.8080 -8.4976 110° East 494 568 37,000 180 Climbing FlightAware UK
03:17PM 52.8030 -8.4750 110° East 496 571 37,000 -300 Level FlightAware
03:18PM 52.7893 -8.4115 110° East 492 566 36,900 -180 Descending FlightAware UK
03:18PM 52.7752 -8.3464 110° East 490 564 36,900 240 Level FlightAware UK
03:18PM 52.7720 -8.3340 110° East 495 570 37,000  Climbing FlightAware
03:18PM 52.7571 -8.2605 110° East 490 564 36,900 -180 Descending FlightAware UK
03:19PM 52.7515 -8.1930 98° East 490 564 36,900 240 Level FlightAware UK
03:19PM 52.7500 -8.1840 98° East 500 575 37,000 240 Climbing FlightAware
03:19PM 52.7418 -8.1029 98° East 494 568 37,000 -180 Level FlightAware UK
03:19PM 52.7347 -8.0353 100° East 492 566 36,900  Descending FlightAware UK
03:19PM 52.7350 -8.0330 100° East 499 574 37,000  Climbing FlightAware
03:20PM 52.7277 -7.9679 100° East 492 566 36,900 -240 Descending FlightAware UK
03:20PM 52.7207 -7.9008 100° East 492 566 36,900  Level FlightAware UK
03:20PM 52.7137 -7.8335 100° East 488 562 36,900 180 Level FlightAware UK
03:20PM 52.7100 -7.8000 100° East 499 574 37,000  Climbing FlightAware
03:21PM 52.7020 -7.7213 100° East 492 566 36,900 -180 Descending FlightAware UK
03:21PM 52.6950 -7.6540 100° East 496 571 36,900 240 Level FlightAware UK
03:21PM 52.6940 -7.6450 100° East 499 574 37,000  Climbing FlightAware
03:21PM 52.6857 -7.5643 100° East 496 571 36,900  Descending FlightAware UK
03:22PM 52.6785 -7.4971 100° East 496 571 37,000 300 Climbing FlightAware UK
03:22PM 52.6790 -7.5030 100° East 497 572 37,000 -360 Level FlightAware
03:22PM 52.6713 -7.4301 100° East 494 568 36,900 -180 Descending FlightAware UK
03:22PM 52.6641 -7.3635 100° East 492 566 36,900 180 Level FlightAware UK
03:23PM 52.6610 -7.3300 100° East 494 568 37,000 180 Climbing FlightAware
03:23PM 52.6524 -7.2525 100° East 490 564 37,000 -180 Level FlightAware UK
03:23PM 52.6455 -7.1862 100° East 490 564 36,900  Descending FlightAware UK
03:23PM 52.6450 -7.1850 100° East 492 566 37,000  Climbing FlightAware
03:23PM 52.6386 -7.1191 100° East 490 564 36,900  Descending FlightAware UK
03:24PM 52.6319 -7.0528 99° East 492 566 37,000 240 Climbing FlightAware UK
03:24PM 52.6280 -7.0290 99° East 493 567 37,000 -300 Level FlightAware
03:24PM 52.6162 -6.9672 99° East 492 566 36,900  Descending FlightAware UK
03:24PM 52.6001 -6.9051 113° Southeast 494 568 37,000 180 Climbing FlightAware UK
03:25PM 52.5900 -6.8750 113° Southeast 497 572 37,000  Level FlightAware
03:25PM 52.5750 -6.8247 113° Southeast 494 568 37,000  Level FlightAware UK
03:25PM 52.5564 -6.7641 117° Southeast 494 568 37,000  Level FlightAware UK
03:25PM 52.5490 -6.7400 117° Southeast 495 570 37,000 -300 Level FlightAware
03:26PM 52.5314 -6.6841 117° Southeast 492 566 36,900  Descending FlightAware UK
03:26PM 52.5125 -6.6244 118° Southeast 494 568 37,000 180 Climbing FlightAware UK
03:26PM 52.5030 -6.5940 118° Southeast 491 565 37,000  Level FlightAware
03:26PM 52.4873 -6.5450 118° Southeast 494 568 37,000  Level FlightAware UK
03:27PM 52.4685 -6.4857 117° Southeast 492 566 37,000  Level FlightAware UK
03:27PM 52.4620 -6.4660 117° Southeast 489 563 37,000  Level FlightAware
03:27PM 52.4433 -6.4071 117° Southeast 492 566 37,000  Level FlightAware UK
03:27PM 52.4244 -6.3484 118° Southeast 488 562 37,000  Level FlightAware UK
03:27PM 52.4160 -6.3230 118° Southeast 487 560 37,000  Level FlightAware
03:28PM 52.3993 -6.2704 118° Southeast 488 562 37,000  Level FlightAware UK
03:28PM 52.3805 -6.2120 118° Southeast 488 562 37,000  Level FlightAware UK
03:28PM 52.3740 -6.1910 118° Southeast 488 562 37,000  Level FlightAware
03:28PM 52.3554 -6.1342 118° Southeast 486 559 37,000  Level FlightAware UK
03:29PM 52.3365 -6.0757 118° Southeast 488 562 37,000  Level FlightAware UK
03:29PM 52.3320 -6.0630 118° Southeast 488 562 37,000  Level FlightAware
03:29PM 52.3115 -5.9977 118° Southeast 488 562 37,000  Level FlightAware UK
03:29PM 52.2922 -5.9386 118° Southeast 488 562 37,000  Level FlightAware UK
03:30PM 52.2840 -5.9140 118° Southeast 488 562 37,000  Level FlightAware
03:30PM 52.2668 -5.8607 118° Southeast 490 564 37,000  Level FlightAware UK
03:30PM 52.2477 -5.8022 118° Southeast 490 564 37,000  Level FlightAware UK
03:30PM 52.2390 -5.7760 118° Southeast 489 563 37,000  Level FlightAware
03:30PM 52.2222 -5.7243 118° Southeast 490 564 37,000  Level FlightAware UK
03:31PM 52.2030 -5.6660 118° Southeast 490 564 37,000  Level FlightAware UK
03:31PM 52.1970 -5.6460 118° Southeast 489 563 37,000 -300 Level FlightAware
03:31PM 52.1775 -5.5883 118° Southeast 488 562 36,900 -180 Descending FlightAware UK
03:31PM 52.1584 -5.5299 118° Southeast 488 562 36,900 180 Level FlightAware UK
03:32PM 52.1500 -5.5040 118° Southeast 489 563 37,000  Climbing FlightAware
03:32PM 52.1328 -5.4524 118° Southeast 490 564 36,900 -180 Descending FlightAware UK
03:32PM 52.1134 -5.3944 118° Southeast 488 562 36,900 240 Level FlightAware UK
03:32PM 52.1070 -5.3740 118° Southeast 490 564 37,000  Climbing FlightAware
03:33PM 52.0914 -5.3137 118° Southeast 490 564 36,900 -180 Descending FlightAware UK
03:33PM 52.0784 -5.2511 109° East 494 568 36,900 180 Level FlightAware UK
03:33PM 52.0740 -5.2260 109° East 492 566 37,000  Climbing FlightAware
03:33PM 52.0643 -5.1657 109° East 494 568 36,900 -180 Descending FlightAware UK
03:34PM 52.0536 -5.1017 105° East 492 566 36,900 180 Level FlightAware UK
03:34PM 52.0480 -5.0680 105° East 490 564 37,000  Climbing FlightAware
03:34PM 52.0357 -4.9954 105° East 494 568 36,900 -180 Descending FlightAware UK
03:34PM 52.0248 -4.9319 105° East 496 571 36,900 300 Level FlightAware UK
03:34PM 52.0240 -4.9260 105° East 488 562 37,000  Climbing FlightAware
03:35PM 52.0138 -4.8678 105° East 492 566 36,900 -180 Descending FlightAware UK
03:35PM 52.0031 -4.8052 106° East 492 566 36,900 240 Level FlightAware UK
03:35PM 52.0000 -4.7860 106° East 486 559 37,000  Climbing FlightAware
03:35PM 51.9885 -4.7205 106° East 492 566 36,900  Descending FlightAware UK
03:36PM 51.9776 -4.6576 106° East 492 566 37,000 180 Climbing FlightAware UK
03:36PM 51.9720 -4.6250 106° East 485 558 37,000 -240 Level FlightAware
03:36PM 51.9595 -4.5528 106° East 492 566 36,900  Descending FlightAware UK
03:36PM 51.9486 -4.4901 106° East 494 568 37,000 300 Climbing FlightAware UK
03:37PM 51.9480 -4.4860 106° East 484 557 37,000 -360 Level FlightAware
03:37PM 51.9375 -4.4276 106° East 494 568 36,900  Descending FlightAware UK
03:37PM 51.9265 -4.3651 106° East 492 566 37,000 180 Climbing FlightAware UK
03:37PM 51.9210 -4.3320 106° East 481 554 37,000  Level FlightAware
03:38PM 51.9064 -4.2516 106° East 483 556 37,000 -180 Level FlightAware ADS-B
03:38PM 51.8971 -4.1987 106° East 488 562 36,900  Descending FlightAware UK
03:38PM 51.8832 -4.1208 106° East 480 552 37,000  Climbing FlightAware ADS-B
03:39PM 51.8714 -4.0544 106° East 486 559 36,900  Descending FlightAware UK
03:39PM 51.8648 -4.0176 106° East 481 554 37,000 180 Climbing FlightAware ADS-B
03:39PM 51.8530 -3.9513 106° East 490 564 37,000  Level FlightAware UK
03:39PM 51.8456 -3.9115 106° East 481 554 37,000  Level FlightAware ADS-B
03:40PM 51.8342 -3.8481 106° East 494 568 37,000  Level FlightAware UK
03:40PM 51.8259 -3.8021 106° East 480 552 37,000 -240 Level FlightAware ADS-B
03:40PM 51.8155 -3.7449 106° East 492 566 36,900  Descending FlightAware UK
03:40PM 51.8069 -3.6978 106° East 480 552 37,000  Climbing FlightAware ADS-B
03:41PM 51.7966 -3.6412 106° East 490 564 36,900  Descending FlightAware UK
03:41PM 51.7875 -3.5913 106° East 479 551 37,000  Climbing FlightAware ADS-B
03:41PM 51.7779 -3.5386 106° East 486 559 36,900  Descending FlightAware UK
03:41PM 51.7680 -3.4863 106° East 480 552 37,000 180 Climbing FlightAware ADS-B
03:42PM 51.7587 -3.4354 106° East 488 562 37,000  Level FlightAware UK
03:42PM 51.7487 -3.3818 106° East 481 554 37,000 -180 Level FlightAware ADS-B
03:42PM 51.7357 -3.3122 106° East 484 557 36,900  Descending FlightAware UK
03:42PM 51.7283 -3.2727 106° East 483 556 37,000  Climbing FlightAware ADS-B
03:43PM 51.7165 -3.2092 106° East 486 559 36,900  Descending FlightAware UK
03:43PM 51.7074 -3.1611 106° East 485 558 37,000 180 Climbing FlightAware ADS-B
03:43PM 51.6971 -3.1056 106° East 490 564 37,000  Level FlightAware UK
03:43PM 51.6874 -3.0546 106° East 487 560 37,000 -240 Level FlightAware ADS-B
03:44PM 51.6772 -3.0009 106° East 492 566 36,900  Descending FlightAware UK
03:44PM 51.6660 -2.9425 106° East 487 560 37,000  Climbing FlightAware ADS-B
03:44PM 51.6536 -2.8761 106° East 496 571 36,900  Descending FlightAware UK
03:45PM 51.6443 -2.8285 106° East 486 559 37,000  Climbing FlightAware ADS-B
03:45PM 51.6339 -2.7732 106° East 496 571 36,900  Descending FlightAware UK
03:45PM 51.6243 -2.7238 106° East 486 559 37,000  Climbing FlightAware ADS-B
03:45PM 51.6141 -2.6700 106° East 494 568 36,900  Descending FlightAware UK
03:46PM 51.6044 -2.6204 106° East 485 558 37,000  Climbing FlightAware ADS-B
03:46PM 51.5940 -2.5664 106° East 492 566 36,900  Descending FlightAware UK
03:46PM 51.5843 -2.5172 106° East 485 558 37,000  Climbing FlightAware ADS-B
03:46PM 51.5739 -2.4637 106° East 496 571 36,900  Descending FlightAware UK
03:47PM 51.5631 -2.4088 106° East 485 558 37,000  Climbing FlightAware ADS-B
03:47PM 51.5498 -2.3404 106° East 490 564 36,900  Descending FlightAware UK
03:47PM 51.5426 -2.3039 106° East 486 559 37,000  Climbing FlightAware ADS-B
03:47PM 51.5295 -2.2369 106° East 490 564 36,900  Descending FlightAware UK
03:48PM 51.5222 -2.2002 106° East 488 562 37,000  Climbing FlightAware ADS-B
03:48PM 51.5091 -2.1338 106° East 494 568 36,900  Descending FlightAware UK
03:48PM 51.5011 -2.0943 106° East 488 562 37,000  Climbing FlightAware ADS-B
03:48PM 51.4887 -2.0312 106° East 494 568 36,900  Descending FlightAware UK
03:49PM 51.4799 -1.9879 106° East 488 562 37,000  Climbing FlightAware ADS-B
03:49PM 51.4681 -1.9279 106° East 498 573 36,900  Descending FlightAware UK
03:49PM 51.4588 -1.8829 106° East 487 560 37,000  Climbing FlightAware ADS-B
03:49PM 51.4471 -1.8243 106° East 500 575 36,900  Descending FlightAware UK
03:50PM 51.4374 -1.7768 106° East 486 559 37,000  Climbing FlightAware ADS-B
03:50PM 51.4262 -1.7210 106° East 496 571 36,900  Descending FlightAware UK
03:50PM 51.4162 -1.6718 106° East 484 557 37,000  Climbing FlightAware ADS-B
03:50PM 51.4055 -1.6183 106° East 496 571 36,900  Descending FlightAware UK
03:51PM 51.3954 -1.5692 106° East 484 557 37,000  Climbing FlightAware ADS-B
03:51PM 51.3847 -1.5174 106° East 496 571 36,900  Descending FlightAware UK
03:51PM 51.3797 -1.5006 106° East 484 557 37,000 240 Climbing FlightAware ADS-B
03:51PM 51.3619 -1.4387 115° Southeast 485 558 37,000  Level FlightAware ADS-B
03:52PM 51.3428 -1.3826 115° Southeast 496 571 37,000  Level FlightAware UK
03:52PM 51.3285 -1.3449 115° Southeast 487 560 37,000  Level FlightAware ADS-B
03:52PM 51.3081 -1.2903 115° Southeast 498 573 37,000  Level FlightAware UK
03:52PM 51.2930 -1.2500 115° Southeast 485 558 37,000 -240 Level FlightAware ADS-B
03:53PM 51.2734 -1.1977 115° Southeast 496 571 36,900  Descending FlightAware UK
03:53PM 51.2572 -1.1546 115° Southeast 484 557 37,000  Climbing FlightAware ADS-B
03:53PM 51.2392 -1.1068 115° Southeast 496 571 36,900  Descending FlightAware UK
03:53PM 51.2212 -1.0597 115° Southeast 483 556 37,000  Climbing FlightAware ADS-B
03:54PM 51.2042 -1.0151 115° Southeast 496 571 36,900  Descending FlightAware UK
03:54PM 51.1861 -0.9677 115° Southeast 481 554 37,000  Climbing FlightAware ADS-B
03:54PM 51.1624 -0.9057 115° Southeast 492 566 36,900  Descending FlightAware UK
03:54PM 51.1509 -0.8761 115° Southeast 481 554 37,000  Climbing FlightAware ADS-B
03:55PM 51.1274 -0.8150 115° Southeast 490 564 36,900  Descending FlightAware UK
03:55PM 51.1161 -0.7856 115° Southeast 481 554 37,000  Climbing FlightAware ADS-B
03:55PM 51.0929 -0.7255 115° Southeast 490 564 36,900  Descending FlightAware UK
03:55PM 51.0813 -0.6951 115° Southeast 481 554 37,000 180 Climbing FlightAware ADS-B
03:56PM 51.0617 -0.6480 124° Southeast 483 556 37,000 -240 Level FlightAware ADS-B
03:56PM 51.0434 -0.6143 131° Southeast 484 557 36,900 -1,080 Descending FlightAware ADS-B
03:56PM 51.0180 -0.5773 131° Southeast 488 562 36,500 -1,200 Descending FlightAware UK
03:56PM 50.9930 -0.5429 131° Southeast 486 559 36,300 -1,020 Descending FlightAware ADS-B
03:57PM 50.9672 -0.5076 131° Southeast 488 562 36,000 -1,200 Descending FlightAware UK
03:57PM 50.9403 -0.4712 131° Southeast 486 559 35,700 -1,200 Descending FlightAware ADS-B
03:57PM 50.9056 -0.4237 131° Southeast 484 557 35,300 -1,020 Descending FlightAware UK
03:57PM 50.8892 -0.4012 131° Southeast 487 560 35,200 -1,020 Descending FlightAware ADS-B
03:58PM 50.8546 -0.3542 131° Southeast 488 562 34,800 -960 Descending FlightAware UK
03:58PM 50.8356 -0.3296 131° Southeast 483 556 34,700 -1,200 Descending FlightAware ADS-B
03:58PM 50.8032 -0.2860 131° Southeast 490 564 34,200 -1,200 Descending FlightAware UK
03:58PM 50.7832 -0.2598 131° Southeast 478 550 34,100 -1,020 Descending FlightAware ADS-B
03:59PM 50.7512 -0.2170 140° Southeast 475 547 33,700 -1,500 Descending FlightAware ADS-B
03:59PM 50.7383 -0.1975 136° Southeast 472 543 33,400 -1,680 Descending FlightAware ADS-B
03:59PM 50.7089 -0.1432 136° Southeast 482 555 32,900 -1,440 Descending FlightAware UK
03:59PM 50.6957 -0.1179 136° Southeast 461 531 32,700 -1,440 Descending FlightAware ADS-B
04:00PM 50.6688 -0.0645 136° Southeast 482 555 32,200 -1,560 Descending FlightAware UK
04:00PM 50.6559 -0.0402 136° Southeast 448 516 31,900 -1,500 Descending FlightAware ADS-B
04:00PM 50.6380 -0.0056 129° Southeast 444 511 31,600 -1,620 Descending FlightAware ADS-B
04:00PM 50.6170 0.0351 129° Southeast 438 504 31,100 -1,560 Descending FlightAware ADS-B
04:01PM 50.5993 0.0690 129° Southeast 435 501 30,800 -1,620 Descending FlightAware ADS-B
04:01PM 50.5788 0.1080 130° Southeast 427 491 30,300 -1,740 Descending FlightAware ADS-B
04:01PM 50.5541 0.1550 130° Southeast 470 541 29,800 -1,440 Descending FlightAware UK
04:01PM 50.5475 0.1676 130° Southeast 417 480 29,700 -1,500 Descending FlightAware ADS-B
04:01PM 50.5407 0.1803 130° Southeast 414 476 29,500 -1,800 Descending FlightAware ADS-B
04:02PM 50.5174 0.2241 130° Southeast 458 527 29,000 -1,500 Descending FlightAware UK
04:02PM 50.5111 0.2346 130° Southeast 406 467 28,900 -1,740 Descending FlightAware ADS-B
04:02PM 50.5094 0.2378 131° Southeast 406 467 28,800 -1,920 Descending FlightAware ADS-B
04:02PM 50.4863 0.2755 131° Southeast 450 518 28,300 -1,500 Descending FlightAware UK
04:02PM 50.4716 0.2987 131° Southeast 405 466 28,100 -660 Descending FlightAware ADS-B
04:03PM 50.4471 0.3374 131° Southeast 448 516 28,000 -240 Descending FlightAware UK
04:03PM 50.4395 0.3495 131° Southeast 404 465 28,000 -540 Level FlightAware ADS-B
04:03PM 50.4323 0.3609 135° Southeast 395 455 27,900 -2,280 Descending FlightAware ADS-B
04:03PM 50.4087 0.3986 135° Southeast 438 504 27,100 -2,460 Descending FlightAware UK
04:03PM 50.3928 0.4242 135° Southeast 396 456 26,600 -1,920 Descending FlightAware ADS-B
04:04PM 50.3717 0.4582 134° Southeast 402 463 26,200 -1,080 Descending FlightAware ADS-B
04:04PM 50.3468 0.4982 134° Southeast 442 509 26,000 -600 Descending FlightAware UK
04:04PM 50.3430 0.5047 134° Southeast 405 466 26,000  Level FlightAware ADS-B
04:04PM 50.3280 0.5286 135° Southeast 407 468 26,000  Level FlightAware ADS-B
04:04PM 50.3069 0.5614 135° Southeast 440 506 26,000  Level FlightAware UK
04:05PM 50.2954 0.5764 135° Southeast 405 466 26,000  Level FlightAware ADS-B
04:05PM 50.2874 0.5874 139° Southeast 405 466 26,000  Level FlightAware ADS-B
04:05PM 50.2642 0.6183 139° Southeast 438 504 26,000  Level FlightAware UK
04:05PM 50.2381 0.6511 141° Southeast 436 502 26,000  Level FlightAware UK
04:05PM 50.2309 0.6596 141° Southeast 404 465 26,000  Level FlightAware ADS-B
04:06PM 50.2031 0.6937 141° Southeast 436 502 26,000  Level FlightAware UK
04:06PM 50.1858 0.7134 141° Southeast 403 464 26,000  Level FlightAware ADS-B
04:06PM 50.1581 0.7462 141° Southeast 436 502 26,000  Level FlightAware UK
04:06PM 50.1342 0.7739 141° Southeast 403 464 26,000  Level FlightAware ADS-B
04:07PM 50.1044 0.8086 141° Southeast 434 499 26,000  Level FlightAware UK
04:07PM 50.0885 0.8275 141° Southeast 404 465 26,000  Level FlightAware ADS-B
04:07PM 50.0598 0.8611 141° Southeast 434 499 26,000  Level FlightAware UK
04:08PM 50.0333 0.8924 143° Southeast 434 499 26,000  Level FlightAware UK
04:08PM 50.0129 0.9169 143° Southeast 405 466 26,000  Level FlightAware ADS-B
04:08PM 49.9887 0.9451 143° Southeast 434 499 26,000  Level FlightAware UK
04:08PM 49.9646 0.9740 143° Southeast 407 468 26,000  Level FlightAware ADS-B
04:09PM 49.9348 1.0094 143° Southeast 436 502 26,000  Level FlightAware UK
04:09PM 49.9197 1.0273 143° Southeast 407 468 26,000 -240 Level FlightAware ADS-B
04:09PM 49.8899 1.0625 143° Southeast 432 497 25,900 -720 Descending FlightAware UK
04:09PM 49.8811 1.0730 143° Southeast 404 465 25,700 -2,520 Descending FlightAware ADS-B
04:10PM 49.8542 1.1048 143° Southeast 422 486 24,900 -2,400 Descending FlightAware UK
04:10PM 49.8368 1.1254 143° Southeast 401 461 24,500 -2,400 Descending FlightAware ADS-B
04:10PM 49.8098 1.1571 143° Southeast 414 476 23,700 -2,400 Descending FlightAware UK
04:10PM 49.7926 1.1772 143° Southeast 400 460 23,300 -2,400 Descending FlightAware ADS-B
04:11PM 49.7654 1.2089 143° Southeast 410 472 22,500 -2,520 Descending FlightAware UK
04:11PM 49.7474 1.2301 143° Southeast 399 459 22,000 -2,400 Descending FlightAware ADS-B
04:11PM 49.7216 1.2605 143° Southeast 404 465 21,300 -2,220 Descending FlightAware UK
04:11PM 49.7031 1.2820 143° Southeast 396 456 20,900 -2,220 Descending FlightAware ADS-B
04:12PM 49.6775 1.3118 143° Southeast 400 460 20,200 -2,220 Descending FlightAware UK
04:12PM 49.6592 1.3334 143° Southeast 392 451 19,800 -2,220 Descending FlightAware ADS-B
04:12PM 49.6345 1.3622 143° Southeast 392 451 19,100 -2,280 Descending FlightAware UK
04:12PM 49.6210 1.3780 143° Southeast 391 450 18,800 -2,220 Descending FlightAware ADS-B
04:13PM 49.5914 1.4123 143° Southeast 390 449 18,000 -2,220 Descending FlightAware UK
04:13PM 49.5779 1.4279 143° Southeast 386 444 17,700 -2,040 Descending FlightAware ADS-B
04:13PM 49.5485 1.4619 143° Southeast 384 442 17,000 -2,040 Descending FlightAware UK
04:13PM 49.5353 1.4774 143° Southeast 382 440 16,700 -2,040 Descending FlightAware ADS-B
04:14PM 49.5060 1.5112 143° Southeast 376 433 16,000 -2,040 Descending FlightAware UK
04:14PM 49.4894 1.5304 143° Southeast 378 435 15,600 -2,220 Descending FlightAware ADS-B
04:14PM 49.4639 1.5593 143° Southeast 368 423 14,900 -2,220 Descending FlightAware UK
04:14PM 49.4470 1.5794 143° Southeast 378 435 14,500 -1,800 Descending FlightAware ADS-B
04:15PM 49.4222 1.6077 143° Southeast 368 423 14,000 -1,620 Descending FlightAware UK
04:15PM 49.4004 1.6328 143° Southeast 370 426 13,600 -1,680 Descending FlightAware ADS-B
04:15PM 49.3725 1.6642 143° Southeast 362 417 13,000 -1,980 Descending FlightAware UK
04:15PM 49.3576 1.6822 143° Southeast 365 420 12,600 -1,800 Descending FlightAware ADS-B
04:16PM 49.3330 1.7106 143° Southeast 356 410 12,100 -1,680 Descending FlightAware UK
04:16PM 49.3243 1.7204 143° Southeast 361 415 11,900 -1,500 Descending FlightAware ADS-B
04:16PM 49.3136 1.7346 139° Southeast 359 413 11,700 -2,040 Descending FlightAware ADS-B
04:16PM 49.3067 1.7467 131° Southeast 357 411 11,400 -1,860 Descending FlightAware ADS-B
04:16PM 49.3004 1.7608 124° Southeast 353 406 11,300 -1,440 Descending FlightAware ADS-B
04:16PM 49.2957 1.7752 117° Southeast 348 400 11,100 -1,500 Descending FlightAware ADS-B
04:16PM 49.2927 1.7875 110° East 346 398 11,000 -420 Descending FlightAware ADS-B
04:16PM 49.2892 1.8112 103° East 343 395 11,000  Level FlightAware ADS-B
04:17PM 49.2879 1.8495 103° East 348 400 11,000  Level FlightAware UK
04:17PM 49.2857 1.8737 103° East 342 394 11,000  Level FlightAware ADS-B
04:17PM 49.2836 1.9222 103° East 1 1 11,000  Level FlightAware UK
04:17PM 49.2828 1.9466 103° East 342 394 11,000  Level FlightAware ADS-B
04:18PM 49.2800 2.0192 93° East 341 392 11,000  Level FlightAware ADS-B
04:18PM 49.2767 2.0923 94° East 342 394 11,000  Level FlightAware ADS-B
04:19PM 49.2729 2.1676 94° East 341 392 11,000  Level FlightAware ADS-B
04:19PM 49.2694 2.2400 94° East 339 390 11,000  Level FlightAware ADS-B
04:20PM 49.2653 2.3218 94° East 340 391 11,000 -600 Level FlightAware ADS-B
04:21PM 49.2616 2.3929 95° East 335 386 10,400 -1,320 Descending FlightAware ADS-B
04:21PM 49.2597 2.4320 94° East 329 379 10,000 -1,380 Descending FlightAware ADS-B
04:21PM 49.2579 2.4663 95° East 320 368 9,700 -1,080 Descending FlightAware ADS-B
04:21PM 49.2563 2.4949 95° East 309 356 9,500 -1,200 Descending FlightAware ADS-B
04:21PM 49.2552 2.5093 97° East 303 349 9,300 -1,320 Descending FlightAware ADS-B
04:22PM 49.2522 2.5420 98° East 293 337 9,000 -1,380 Descending FlightAware ADS-B
04:22PM 49.2487 2.5720 100° East 285 328 8,600 -1,620 Descending FlightAware ADS-B
04:22PM 49.2452 2.6029 100° East 282 325 8,200 -1,560 Descending FlightAware ADS-B
04:22PM 49.2417 2.6328 100° East 280 322 7,800 -1,740 Descending FlightAware ADS-B
04:23PM 49.2379 2.6650 100° East 278 320 7,300 -1,740 Descending FlightAware ADS-B
04:23PM 49.2343 2.6953 100° East 275 316 6,900 -1,500 Descending FlightAware ADS-B
04:23PM 49.2306 2.7259 100° East 273 314 6,500 -1,620 Descending FlightAware ADS-B
04:24PM 49.2265 2.7597 101° East 272 313 6,000 -1,860 Descending FlightAware ADS-B
04:24PM 49.2231 2.7878 100° East 269 310 5,500 -1,740 Descending FlightAware ADS-B
04:24PM 49.2194 2.8189 100° East 267 307 5,100 -1,500 Descending FlightAware ADS-B
04:24PM 49.2160 2.8469 101° East 268 308 4,700 -1,440 Descending FlightAware ADS-B
04:25PM 49.2126 2.8749 101° East 266 306 4,400 -1,500 Descending FlightAware ADS-B
04:25PM 49.2113 2.8849 101° East 267 307 4,200 -1,800 Descending FlightAware ADS-B
04:25PM 49.2099 2.8929 105° East 268 308 4,100 -1,380 Descending FlightAware ADS-B
04:25PM 49.2078 2.9008 112° Southeast 270 311 4,000 -1,500 Descending FlightAware ADS-B
04:25PM 49.2059 2.9064 118° Southeast 273 314 3,900 -900 Descending FlightAware ADS-B
04:25PM 49.2038 2.9111 124° Southeast 275 316 3,900  Level FlightAware ADS-B
04:25PM 49.2005 2.9170 130° Southeast 277 319 3,900 -900 Level FlightAware ADS-B
04:25PM 49.1969 2.9225 135° Southeast 278 320 3,800 -600 Descending FlightAware ADS-B
04:25PM 49.1914 2.9297 140° Southeast 278 320 3,800  Level FlightAware ADS-B
04:25PM 49.1764 2.9479 142° Southeast 264 304 3,800  Level FlightAware ADS-B
04:26PM 49.1623 2.9651 141° Southeast 249 287 3,800  Level FlightAware ADS-B
04:26PM 49.1484 2.9822 141° Southeast 247 284 3,800  Level FlightAware ADS-B
04:26PM 49.1345 2.9993 141° Southeast 245 282 3,800  Level FlightAware ADS-B
04:26PM 49.1209 3.0160 141° Southeast 247 284 3,800  Level FlightAware ADS-B
04:27PM 49.1075 3.0326 141° Southeast 246 283 3,800  Level FlightAware ADS-B
04:27PM 49.0975 3.0448 141° Southeast 246 283 3,800  Level FlightAware ADS-B
04:27PM 49.0911 3.0509 148° Southeast 247 284 3,800  Level FlightAware ADS-B
04:27PM 49.0848 3.0545 159° South 249 287 3,800  Level FlightAware ADS-B
04:27PM 49.0640 3.0574 175° South 249 287 3,800  Level FlightAware ADS-B
04:27PM 49.0561 3.0570 182° South 247 284 3,800  Level FlightAware ADS-B
04:28PM 49.0517 3.0560 189° South 248 285 3,800  Level FlightAware ADS-B
04:28PM 49.0461 3.0533 197° South 242 278 3,800  Level FlightAware ADS-B
04:28PM 49.0430 3.0510 206° Southwest 236 272 3,800  Level FlightAware ADS-B
04:28PM 49.0398 3.0479 213° Southwest 229 264 3,800  Level FlightAware ADS-B
04:28PM 49.0365 3.0435 221° Southwest 224 258 3,800  Level FlightAware ADS-B
04:28PM 49.0327 3.0369 229° Southwest 216 249 3,800  Level FlightAware ADS-B
04:28PM 49.0239 3.0179 235° Southwest 215 247 3,800  Level FlightAware ADS-B
04:28PM 49.0198 3.0081 238° Southwest 216 249 3,800  Level FlightAware ADS-B
04:28PM 49.0168 2.9994 242° Southwest 210 242 3,800  Level FlightAware ADS-B
04:28PM 49.0157 2.9947 250° West 209 241 3,800  Level FlightAware ADS-B
04:29PM 49.0150 2.9897 258° West 208 239 3,800  Level FlightAware ADS-B
04:29PM 49.0144 2.9839 261° West 206 237 3,800  Level FlightAware ADS-B
04:29PM 49.0138 2.9712 266° West 205 236 3,800  Level FlightAware ADS-B
04:29PM 49.0134 2.9596 267° West 203 234 3,800  Level FlightAware ADS-B
04:29PM 49.0123 2.9386 265° West 205 236 3,800 180 Level FlightAware ADS-B
04:29PM 49.0116 2.9205 267° West 199 229 3,900  Climbing FlightAware ADS-B
04:30PM 49.0104 2.9006 265° West 194 223 3,800 -300 Descending FlightAware ADS-B
04:30PM 49.0098 2.8906 265° West 189 217 3,800  Level FlightAware ADS-B
04:30PM 49.0094 2.8825 266° West 186 214 3,800  Level FlightAware ADS-B
04:30PM 49.0089 2.8723 266° West 186 214 3,800 -720 Level FlightAware ADS-B
04:30PM 49.0082 2.8582 266° West 186 214 3,600 -1,140 Descending FlightAware ADS-B
04:30PM 49.0072 2.8379 266° West 187 215 3,300 -1,140 Descending FlightAware ADS-B
04:31PM 49.0061 2.8176 265° West 184 212 3,000 -1,020 Descending FlightAware ADS-B
04:31PM 49.0055 2.8066 265° West 182 209 2,900 -1,080 Descending FlightAware ADS-B
04:31PM 49.0049 2.7950 265° West 180 207 2,700 -1,200 Descending FlightAware ADS-B
04:31PM 49.0039 2.7749 266° West 179 206 2,400 -960 Descending FlightAware ADS-B
04:31PM 49.0029 2.7553 266° West 180 207 2,200 -900 Descending FlightAware ADS-B
04:32PM 49.0019 2.7339 266° West 161 185 1,900 -900 Descending FlightAware ADS-B
04:32PM 49.0009 2.7170 265° West 159 183 1,700 -720 Descending FlightAware ADS-B
04:32PM 49.0003 2.7059 265° West 158 182 1,600 -960 Descending FlightAware ADS-B
04:33PM 48.9989 2.6793 265° West 161 185 1,200 -900 Descending FlightAware ADS-B
04:33PM 48.9980 2.6612 266° West 161 185 1,000 -960 Descending FlightAware ADS-B
04:33PM 48.9971 2.6436 266° West 159 183 700 -1,020 Descending FlightAware ADS-B
04:33PM 48.9962 2.6266 265° West 158 182 500 -720 Descending FlightAware ADS-B
04:34PM 48.9955 2.6153 265° West 158 182 400 -600 Descending FlightAware ADS-B
04:34PM 48.9940 2.5820 266° West 98 113 -660 Descending FlightAware
04:38PM 48.9990 2.5490 62° Northeast 12 14  Level FlightAware
04:38PM 48.9990 2.5480 270° West 8 9  Level FlightAware
04:44PM 47.6309 -1.7007 62° Northeast  Level Estimated
04:45PM 47.6956 -1.5166 62° Northeast  Level Estimated
04:46PM 47.7600 -1.3321 63° Northeast  Level Estimated
04:47PM 47.8241 -1.1471 63° Northeast  Level Estimated